createdAt,value
2018-05-15T00:01:01.321Z,15.22
2018-05-15T00:02:09.944Z,15.19
2018-05-15T00:03:18.568Z,15.14
2018-05-15T00:04:27.195Z,15.15
2018-05-15T00:05:36.090Z,15.07
2018-05-15T00:06:44.715Z,15.17
2018-05-15T00:07:53.338Z,15.04
2018-05-15T00:09:01.963Z,15.08
2018-05-15T00:10:10.588Z,15.07
2018-05-15T00:11:19.210Z,15.07
2018-05-15T00:12:27.833Z,14.97
2018-05-15T00:13:36.457Z,14.99
2018-05-15T00:14:45.080Z,14.94
2018-05-15T00:15:53.705Z,14.94
2018-05-15T00:17:02.326Z,15
2018-05-15T00:18:10.949Z,14.97
2018-05-15T00:19:19.573Z,14.9
2018-05-15T00:20:28.195Z,14.89
2018-05-15T00:21:36.819Z,14.92
2018-05-15T00:22:45.443Z,14.92
2018-05-15T00:23:54.074Z,14.9
2018-05-15T00:25:02.692Z,14.85
2018-05-15T00:26:11.317Z,14.85
2018-05-15T00:27:19.938Z,14.87
2018-05-15T00:28:28.561Z,14.73
2018-05-15T00:29:37.184Z,14.78
2018-05-15T00:30:46.072Z,14.73
2018-05-15T00:31:54.695Z,14.73
2018-05-15T00:33:03.322Z,14.74
2018-05-15T00:34:12.208Z,14.7
2018-05-15T00:35:21.093Z,14.63
2018-05-15T00:36:29.718Z,14.62
2018-05-15T00:37:38.341Z,14.68
2018-05-15T00:38:46.965Z,14.66
2018-05-15T00:39:55.589Z,14.63
2018-05-15T00:41:04.212Z,14.59
2018-05-15T00:42:12.835Z,14.63
2018-05-15T00:43:21.456Z,14.58
2018-05-15T00:44:30.079Z,14.62
2018-05-15T00:45:38.706Z,14.55
2018-05-15T00:46:47.327Z,14.55
2018-05-15T00:47:55.956Z,14.55
2018-05-15T00:49:04.576Z,14.53
2018-05-15T00:50:13.224Z,14.45
2018-05-15T00:51:21.860Z,14.44
2018-05-15T00:52:30.510Z,14.52
2018-05-15T00:53:39.145Z,14.45
2018-05-15T00:54:47.799Z,14.48
2018-05-15T00:55:56.436Z,14.43
2018-05-15T00:57:05.084Z,14.38
2018-05-15T00:58:13.999Z,14.51
2018-05-15T00:59:22.924Z,14.41
2018-05-15T01:00:31.566Z,14.41
2018-05-15T01:01:40.208Z,14.38
2018-05-15T01:02:48.855Z,14.36
2018-05-15T01:03:57.495Z,14.4
2018-05-15T01:05:06.695Z,14.38
2018-05-15T01:06:15.337Z,14.38
2018-05-15T01:07:23.987Z,14.33
2018-05-15T01:08:32.627Z,14.33
2018-05-15T01:09:41.553Z,14.28
2018-05-15T01:10:50.190Z,14.23
2018-05-15T01:11:58.842Z,14.25
2018-05-15T01:13:07.479Z,14.23
2018-05-15T01:14:16.138Z,14.19
2018-05-15T01:15:24.783Z,14.25
2018-05-15T01:16:33.430Z,14.18
2018-05-15T01:17:42.072Z,14.2
2018-05-15T01:18:50.715Z,14.15
2018-05-15T01:19:59.629Z,14.22
2018-05-15T01:21:08.274Z,14.15
2018-05-15T01:22:17.186Z,14.15
2018-05-15T01:23:26.092Z,14.11
2018-05-15T01:24:34.739Z,14.07
2018-05-15T01:25:43.381Z,14.05
2018-05-15T01:26:52.029Z,14.11
2018-05-15T01:28:00.676Z,14.04
2018-05-15T01:29:09.320Z,14.15
2018-05-15T01:30:17.973Z,14.08
2018-05-15T01:31:26.620Z,14
2018-05-15T01:32:35.525Z,14
2018-05-15T01:33:44.171Z,14.04
2018-05-15T01:34:52.814Z,14.03
2018-05-15T01:36:01.464Z,14.03
2018-05-15T01:37:10.109Z,13.94
2018-05-15T01:38:18.755Z,13.91
2018-05-15T01:39:27.399Z,13.95
2018-05-15T01:40:36.043Z,13.95
2018-05-15T01:41:44.691Z,13.95
2018-05-15T01:42:53.331Z,13.83
2018-05-15T01:44:01.979Z,13.85
2018-05-15T01:45:10.619Z,13.87
2018-05-15T01:46:19.271Z,13.87
2018-05-15T01:47:27.916Z,13.89
2018-05-15T01:48:36.560Z,13.79
2018-05-15T01:49:45.225Z,13.8
2018-05-15T01:50:54.114Z,13.78
2018-05-15T01:52:02.761Z,13.75
2018-05-15T01:53:11.407Z,13.79
2018-05-15T01:54:20.308Z,13.73
2018-05-15T01:55:28.968Z,13.7
2018-05-15T01:56:37.601Z,13.79
2018-05-15T01:57:46.249Z,13.67
2018-05-15T01:58:54.895Z,13.68
2018-05-15T02:00:03.536Z,13.67
2018-05-15T02:01:12.182Z,13.68
2018-05-15T02:02:21.188Z,13.7
2018-05-15T02:03:29.831Z,13.68
2018-05-15T02:04:38.471Z,13.73
2018-05-15T02:05:47.384Z,13.73
2018-05-15T02:06:56.029Z,13.61
2018-05-15T02:08:04.679Z,13.64
2018-05-15T02:09:13.320Z,13.7
2018-05-15T02:10:22.233Z,13.73
2018-05-15T02:11:31.141Z,13.54
2018-05-15T02:12:39.788Z,13.57
2018-05-15T02:13:48.431Z,13.65
2018-05-15T02:14:57.076Z,13.54
2018-05-15T02:16:05.998Z,13.58
2018-05-15T02:17:14.631Z,13.62
2018-05-15T02:18:23.282Z,13.55
2018-05-15T02:19:31.923Z,13.49
2018-05-15T02:20:40.566Z,13.54
2018-05-15T02:21:49.215Z,13.49
2018-05-15T02:22:57.856Z,13.5
2018-05-15T02:24:06.502Z,13.55
2018-05-15T02:25:15.148Z,13.47
2018-05-15T02:26:23.883Z,13.43
2018-05-15T02:27:32.706Z,13.4
2018-05-15T02:28:41.353Z,13.43
2018-05-15T02:29:49.995Z,13.4
2018-05-15T02:30:58.645Z,13.42
2018-05-15T02:32:07.288Z,13.37
2018-05-15T02:33:15.934Z,13.33
2018-05-15T02:34:24.578Z,13.37
2018-05-15T02:35:33.497Z,13.36
2018-05-15T02:36:42.959Z,13.31
2018-05-15T02:37:51.880Z,13.31
2018-05-15T02:39:00.526Z,13.36
2018-05-15T02:40:09.156Z,13.26
2018-05-15T02:41:18.343Z,13.27
2018-05-15T02:42:26.989Z,13.26
2018-05-15T02:43:35.619Z,13.19
2018-05-15T02:44:44.257Z,13.19
2018-05-15T02:45:52.917Z,13.16
2018-05-15T02:47:02.348Z,13.19
2018-05-15T02:48:10.996Z,13.13
2018-05-15T02:49:19.639Z,13.13
2018-05-15T02:50:28.285Z,13.19
2018-05-15T02:51:36.940Z,13.24
2018-05-15T02:52:45.592Z,13.2
2018-05-15T02:53:54.770Z,13.13
2018-05-15T02:55:03.414Z,13.09
2018-05-15T02:56:12.051Z,13.02
2018-05-15T02:57:20.673Z,13.03
2018-05-15T02:58:29.311Z,12.99
2018-05-15T02:59:37.953Z,13.01
2018-05-15T03:00:46.653Z,12.95
2018-05-15T03:01:55.444Z,12.93
2018-05-15T03:03:04.472Z,12.99
2018-05-15T03:04:13.259Z,12.91
2018-05-15T03:05:22.325Z,12.87
2018-05-15T03:06:31.245Z,12.87
2018-05-15T03:07:39.899Z,12.87
2018-05-15T03:08:48.550Z,12.84
2018-05-15T03:09:57.207Z,12.86
2018-05-15T03:11:06.376Z,12.86
2018-05-15T03:12:15.024Z,12.76
2018-05-15T03:13:23.678Z,12.78
2018-05-15T03:14:32.598Z,12.69
2018-05-15T03:15:41.514Z,12.78
2018-05-15T03:16:50.151Z,12.75
2018-05-15T03:17:58.803Z,12.69
2018-05-15T03:19:07.441Z,12.69
2018-05-15T03:20:16.090Z,12.65
2018-05-15T03:21:24.723Z,12.65
2018-05-15T03:22:33.381Z,12.62
2018-05-15T03:23:42.293Z,12.62
2018-05-15T03:24:50.939Z,12.63
2018-05-15T03:25:59.574Z,12.61
2018-05-15T03:27:08.219Z,12.63
2018-05-15T03:28:16.867Z,12.57
2018-05-15T03:29:25.521Z,12.53
2018-05-15T03:30:34.176Z,12.55
2018-05-15T03:31:43.105Z,12.47
2018-05-15T03:32:51.755Z,12.58
2018-05-15T03:34:00.392Z,12.54
2018-05-15T03:35:09.046Z,12.58
2018-05-15T03:36:17.680Z,12.5
2018-05-15T03:37:26.329Z,12.39
2018-05-15T03:38:34.971Z,12.44
2018-05-15T03:39:43.624Z,12.39
2018-05-15T03:40:52.259Z,12.43
2018-05-15T03:42:00.906Z,12.39
2018-05-15T03:43:09.810Z,12.39
2018-05-15T03:44:18.459Z,12.3
2018-05-15T03:45:27.162Z,12.39
2018-05-15T03:46:36.008Z,12.37
2018-05-15T03:47:44.648Z,12.26
2018-05-15T03:48:53.291Z,12.37
2018-05-15T03:50:02.233Z,12.32
2018-05-15T03:51:10.876Z,12.28
2018-05-15T03:52:19.521Z,12.32
2018-05-15T03:53:28.419Z,12.33
2018-05-15T03:54:37.075Z,12.26
2018-05-15T03:55:45.714Z,12.26
2018-05-15T03:56:54.363Z,12.29
2018-05-15T03:58:02.997Z,12.28
2018-05-15T03:59:11.650Z,12.29
2018-05-15T04:00:20.293Z,12.2
2018-05-15T04:01:28.939Z,12.29
2018-05-15T04:02:37.572Z,12.21
2018-05-15T04:03:46.491Z,12.23
2018-05-15T04:04:55.139Z,12.25
2018-05-15T04:06:03.786Z,12.28
2018-05-15T04:07:12.432Z,12.15
2018-05-15T04:08:21.064Z,12.3
2018-05-15T04:09:30.008Z,12.2
2018-05-15T04:10:38.649Z,12.18
2018-05-15T04:11:47.303Z,12.26
2018-05-15T04:12:55.937Z,12.17
2018-05-15T04:14:04.587Z,12.17
2018-05-15T04:15:13.225Z,12.17
2018-05-15T04:16:22.142Z,12.15
2018-05-15T04:17:30.775Z,12.14
2018-05-15T04:18:39.424Z,12.12
2018-05-15T04:19:48.335Z,12.28
2018-05-15T04:20:57.258Z,12.18
2018-05-15T04:22:05.896Z,12.29
2018-05-15T04:23:14.539Z,12.2
2018-05-15T04:24:23.179Z,12.17
2018-05-15T04:25:31.838Z,12.29
2018-05-15T04:26:40.491Z,12.23
2018-05-15T04:27:49.130Z,12.21
2018-05-15T04:28:58.045Z,12.29
2018-05-15T04:30:06.956Z,12.2
2018-05-15T04:31:15.615Z,12.32
2018-05-15T04:32:24.250Z,12.3
2018-05-15T04:33:32.900Z,12.21
2018-05-15T04:34:41.529Z,12.23
2018-05-15T04:35:50.183Z,12.26
2018-05-15T04:36:58.822Z,12.23
2018-05-15T04:38:07.465Z,12.25
2018-05-15T04:39:16.100Z,12.18
2018-05-15T04:40:24.745Z,12.17
2018-05-15T04:41:33.665Z,12.23
2018-05-15T04:42:42.313Z,12.29
2018-05-15T04:43:51.198Z,12.15
2018-05-15T04:44:59.593Z,12.21
2018-05-15T04:46:08.241Z,12.3
2018-05-15T04:47:16.885Z,12.25
2018-05-15T04:48:25.537Z,12.26
2018-05-15T04:49:34.173Z,12.29
2018-05-15T04:50:42.822Z,12.28
2018-05-15T04:51:51.461Z,12.37
2018-05-15T04:53:00.142Z,12.28
2018-05-15T04:54:09.043Z,12.44
2018-05-15T04:55:17.689Z,12.37
2018-05-15T04:56:26.331Z,12.5
2018-05-15T04:57:35.251Z,12.47
2018-05-15T04:58:44.153Z,12.54
2018-05-15T04:59:52.793Z,12.51
2018-05-15T05:01:01.436Z,12.51
2018-05-15T05:02:10.078Z,12.55
2018-05-15T05:03:18.731Z,12.57
2018-05-15T05:04:27.370Z,12.62
2018-05-15T05:05:36.017Z,12.61
2018-05-15T05:06:44.652Z,12.66
2018-05-15T05:07:53.302Z,12.7
2018-05-15T05:09:01.944Z,12.78
2018-05-15T05:10:10.667Z,12.86
2018-05-15T05:11:19.233Z,12.83
2018-05-15T05:12:27.883Z,12.84
2018-05-15T05:13:36.528Z,12.98
2018-05-15T05:14:45.177Z,12.95
2018-05-15T05:15:53.816Z,13.05
2018-05-15T05:17:02.729Z,13.12
2018-05-15T05:18:11.373Z,13.09
2018-05-15T05:19:20.022Z,13.17
2018-05-15T05:20:28.674Z,13.13
2018-05-15T05:21:37.309Z,13.13
2018-05-15T05:22:45.952Z,13.23
2018-05-15T05:23:54.596Z,13.27
2018-05-15T05:25:03.503Z,13.31
2018-05-15T05:26:12.143Z,13.4
2018-05-15T05:27:20.796Z,13.46
2018-05-15T05:28:29.440Z,13.33
2018-05-15T05:29:38.091Z,13.5
2018-05-15T05:30:47.261Z,13.58
2018-05-15T05:31:55.906Z,13.54
2018-05-15T05:33:04.548Z,13.58
2018-05-15T05:34:13.202Z,13.6
2018-05-15T05:35:21.843Z,13.7
2018-05-15T05:36:30.491Z,13.75
2018-05-15T05:37:39.130Z,13.7
2018-05-15T05:38:47.771Z,13.79
2018-05-15T05:39:56.421Z,13.79
2018-05-15T05:41:05.424Z,13.86
2018-05-15T05:42:14.068Z,13.85
2018-05-15T05:43:22.708Z,13.94
2018-05-15T05:44:31.357Z,13.98
2018-05-15T05:45:40.002Z,14.12
2018-05-15T05:46:48.650Z,14.15
2018-05-15T05:47:57.289Z,14.19
2018-05-15T05:49:05.942Z,14.25
2018-05-15T05:50:14.581Z,14.26
2018-05-15T05:51:23.489Z,14.37
2018-05-15T05:52:32.395Z,14.36
2018-05-15T05:53:41.043Z,14.37
2018-05-15T05:54:49.685Z,14.45
2018-05-15T05:55:58.595Z,14.51
2018-05-15T05:57:07.249Z,14.58
2018-05-15T05:58:15.889Z,14.49
2018-05-15T05:59:24.534Z,14.58
2018-05-15T06:00:33.178Z,14.61
2018-05-15T06:01:41.828Z,14.67
2018-05-15T06:02:50.487Z,14.81
2018-05-15T06:03:59.112Z,14.89
2018-05-15T06:05:07.762Z,14.78
2018-05-15T06:06:16.414Z,14.92
2018-05-15T06:07:25.124Z,15
2018-05-15T06:08:33.702Z,14.89
2018-05-15T06:09:42.346Z,14.97
2018-05-15T06:10:50.995Z,15.04
2018-05-15T06:11:59.672Z,15.14
2018-05-15T06:13:08.287Z,15.14
2018-05-15T06:14:17.556Z,15.17
2018-05-15T06:15:26.189Z,15.23
2018-05-15T06:16:34.830Z,15.29
2018-05-15T06:17:43.483Z,15.35
2018-05-15T06:18:52.130Z,15.44
2018-05-15T06:20:00.784Z,15.5
2018-05-15T06:21:09.735Z,15.52
2018-05-15T06:22:18.384Z,15.57
2018-05-15T06:23:27.031Z,15.62
2018-05-15T06:24:35.682Z,15.72
2018-05-15T06:25:44.329Z,15.88
2018-05-15T06:26:52.969Z,15.9
2018-05-15T06:28:01.615Z,15.99
2018-05-15T06:29:10.267Z,16.03
2018-05-15T06:30:18.913Z,16.08
2018-05-15T06:31:27.556Z,16.1
2018-05-15T06:32:36.203Z,16.21
2018-05-15T06:33:44.842Z,16.18
2018-05-15T06:34:53.492Z,16.09
2018-05-15T06:36:02.136Z,16.26
2018-05-15T06:37:10.780Z,16.26
2018-05-15T06:38:19.692Z,16.36
2018-05-15T06:39:28.343Z,16.4
2018-05-15T06:40:36.989Z,16.4
2018-05-15T06:41:45.635Z,16.41
2018-05-15T06:42:54.545Z,16.54
2018-05-15T06:44:03.195Z,16.54
2018-05-15T06:45:11.840Z,16.58
2018-05-15T06:46:20.488Z,16.65
2018-05-15T06:47:29.400Z,16.66
2018-05-15T06:48:38.579Z,16.66
2018-05-15T06:49:47.224Z,16.58
2018-05-15T06:50:55.875Z,16.62
2018-05-15T06:52:04.794Z,16.65
2018-05-15T06:53:13.698Z,16.73
2018-05-15T06:54:22.346Z,16.79
2018-05-15T06:55:31.259Z,16.76
2018-05-15T06:56:39.906Z,16.84
2018-05-15T06:57:48.549Z,17.01
2018-05-15T06:58:57.197Z,16.94
2018-05-15T07:00:05.844Z,17.05
2018-05-15T07:01:14.492Z,17.14
2018-05-15T07:02:23.398Z,17.24
2018-05-15T07:03:32.045Z,17.24
2018-05-15T07:04:40.688Z,17.39
2018-05-15T07:05:49.603Z,17.35
2018-05-15T07:06:58.246Z,17.41
2018-05-15T07:08:07.169Z,17.49
2018-05-15T07:09:15.814Z,17.42
2018-05-15T07:10:24.754Z,17.42
2018-05-15T07:11:33.769Z,17.5
2018-05-15T07:12:42.613Z,17.57
2018-05-15T07:13:51.269Z,17.6
2018-05-15T07:14:59.905Z,17.65
2018-05-15T07:16:08.560Z,17.66
2018-05-15T07:17:17.204Z,17.76
2018-05-15T07:18:26.120Z,17.79
2018-05-15T07:19:34.788Z,17.82
2018-05-15T07:20:43.415Z,17.86
2018-05-15T07:21:52.061Z,17.84
2018-05-15T07:23:00.711Z,17.94
2018-05-15T07:24:09.354Z,18.05
2018-05-15T07:25:18.004Z,18.06
2018-05-15T07:26:26.659Z,18.03
2018-05-15T07:27:35.309Z,18.11
2018-05-15T07:28:43.968Z,18.19
2018-05-15T07:29:52.600Z,18.24
2018-05-15T07:31:01.253Z,18.24
2018-05-15T07:32:10.171Z,18.31
2018-05-15T07:33:19.015Z,18.45
2018-05-15T07:34:28.060Z,18.51
2018-05-15T07:35:36.715Z,18.45
2018-05-15T07:36:45.372Z,18.49
2018-05-15T07:37:54.037Z,18.52
2018-05-15T07:39:02.678Z,18.55
2018-05-15T07:40:11.621Z,18.51
2018-05-15T07:41:20.244Z,18.58
2018-05-15T07:42:28.902Z,18.67
2018-05-15T07:43:37.549Z,18.63
2018-05-15T07:44:46.459Z,18.68
2018-05-15T07:45:55.110Z,18.68
2018-05-15T07:47:03.753Z,18.74
2018-05-15T07:48:12.751Z,18.74
2018-05-15T07:49:21.990Z,18.83
2018-05-15T07:50:30.905Z,18.86
2018-05-15T07:51:39.546Z,18.88
2018-05-15T07:52:48.202Z,18.94
2018-05-15T07:53:56.852Z,18.92
2018-05-15T07:55:05.498Z,19
2018-05-15T07:56:14.140Z,18.92
2018-05-15T07:57:23.062Z,19.04
2018-05-15T07:58:31.709Z,19.07
2018-05-15T07:59:40.358Z,19.05
2018-05-15T08:00:48.995Z,19.2
2018-05-15T08:01:57.648Z,19.23
2018-05-15T08:03:06.681Z,19.29
2018-05-15T08:04:15.358Z,19.27
2018-05-15T08:05:24.046Z,19.3
2018-05-15T08:06:32.687Z,19.27
2018-05-15T08:07:41.341Z,19.34
2018-05-15T08:08:50.065Z,19.45
2018-05-15T08:09:58.984Z,19.34
2018-05-15T08:11:07.627Z,19.48
2018-05-15T08:12:16.275Z,19.52
2018-05-15T08:13:24.922Z,19.52
2018-05-15T08:14:33.579Z,19.57
2018-05-15T08:15:42.220Z,19.63
2018-05-15T08:16:50.871Z,19.62
2018-05-15T08:17:59.785Z,19.71
2018-05-15T08:19:08.438Z,19.72
2018-05-15T08:20:17.088Z,19.78
2018-05-15T08:21:25.741Z,19.7
2018-05-15T08:22:34.470Z,19.78
2018-05-15T08:23:43.033Z,19.79
2018-05-15T08:24:51.689Z,19.89
2018-05-15T08:26:00.340Z,19.81
2018-05-15T08:27:08.992Z,19.9
2018-05-15T08:28:17.641Z,20.07
2018-05-15T08:29:26.291Z,20.07
2018-05-15T08:30:35.238Z,20.14
2018-05-15T08:31:44.165Z,20.21
2018-05-15T08:32:52.813Z,20.14
2018-05-15T08:34:01.737Z,20.15
2018-05-15T08:35:10.386Z,20.22
2018-05-15T08:36:19.036Z,20.21
2018-05-15T08:37:27.777Z,20.29
2018-05-15T08:38:36.732Z,20.32
2018-05-15T08:39:45.384Z,20.42
2018-05-15T08:40:54.572Z,20.42
2018-05-15T08:42:03.221Z,20.58
2018-05-15T08:43:11.867Z,20.55
2018-05-15T08:44:20.517Z,20.59
2018-05-15T08:45:29.241Z,20.75
2018-05-15T08:46:37.832Z,20.73
2018-05-15T08:47:46.475Z,20.85
2018-05-15T08:48:55.121Z,20.9
2018-05-15T08:50:03.771Z,20.9
2018-05-15T08:51:12.427Z,20.89
2018-05-15T08:52:21.069Z,20.88
2018-05-15T08:53:29.986Z,20.89
2018-05-15T08:54:38.641Z,20.95
2018-05-15T08:55:47.290Z,20.93
2018-05-15T08:56:56.205Z,20.89
2018-05-15T08:58:04.856Z,20.89
2018-05-15T08:59:13.505Z,20.92
2018-05-15T09:00:22.153Z,20.89
2018-05-15T09:01:30.807Z,20.93
2018-05-15T09:02:39.459Z,21.03
2018-05-15T09:03:48.111Z,21.05
2018-05-15T09:04:56.757Z,21.14
2018-05-15T09:06:05.411Z,21.17
2018-05-15T09:07:14.063Z,21.19
2018-05-15T09:08:22.713Z,21.26
2018-05-15T09:09:31.356Z,21.25
2018-05-15T09:10:40.014Z,21.23
2018-05-15T09:11:48.664Z,21.2
2018-05-15T09:12:57.590Z,21.35
2018-05-15T09:14:06.233Z,21.43
2018-05-15T09:15:15.150Z,21.44
2018-05-15T09:16:23.806Z,21.4
2018-05-15T09:17:32.460Z,21.41
2018-05-15T09:18:41.115Z,21.43
2018-05-15T09:19:49.757Z,21.47
2018-05-15T09:20:58.678Z,21.45
2018-05-15T09:22:07.609Z,21.51
2018-05-15T09:23:16.532Z,21.59
2018-05-15T09:24:25.173Z,21.62
2018-05-15T09:25:33.828Z,21.69
2018-05-15T09:26:42.472Z,21.68
2018-05-15T09:27:51.134Z,21.69
2018-05-15T09:28:59.778Z,21.69
2018-05-15T09:30:08.704Z,21.69
2018-05-15T09:31:17.351Z,21.84
2018-05-15T09:32:26.013Z,21.85
2018-05-15T09:33:34.926Z,21.88
2018-05-15T09:34:43.578Z,21.91
2018-05-15T09:35:52.492Z,21.88
2018-05-15T09:37:01.402Z,21.88
2018-05-15T09:38:10.061Z,21.91
2018-05-15T09:39:18.716Z,21.85
2018-05-15T09:40:27.366Z,21.94
2018-05-15T09:41:36.009Z,21.91
2018-05-15T09:42:44.935Z,21.85
2018-05-15T09:43:53.584Z,21.85
2018-05-15T09:45:02.238Z,21.83
2018-05-15T09:46:11.144Z,21.88
2018-05-15T09:47:19.807Z,21.88
2018-05-15T09:48:28.457Z,21.88
2018-05-15T09:49:37.376Z,21.77
2018-05-15T09:50:46.017Z,21.81
2018-05-15T09:51:54.670Z,21.83
2018-05-15T09:53:03.326Z,21.81
2018-05-15T09:54:11.975Z,21.85
2018-05-15T09:55:20.626Z,21.91
2018-05-15T09:56:29.268Z,21.88
2018-05-15T09:57:38.188Z,21.94
2018-05-15T09:58:46.835Z,21.94
2018-05-15T09:59:55.495Z,22.04
2018-05-15T10:01:04.136Z,22.1
2018-05-15T10:02:12.870Z,22.14
2018-05-15T10:03:21.438Z,22.18
2018-05-15T10:04:30.098Z,22.18
2018-05-15T10:05:38.741Z,22.3
2018-05-15T10:06:47.395Z,22.36
2018-05-15T10:07:56.526Z,22.46
2018-05-15T10:09:05.079Z,22.52
2018-05-15T10:10:13.734Z,22.56
2018-05-15T10:11:22.388Z,22.61
2018-05-15T10:12:31.042Z,22.76
2018-05-15T10:13:39.699Z,22.89
2018-05-15T10:14:48.337Z,22.96
2018-05-15T10:15:56.997Z,22.98
2018-05-15T10:17:05.657Z,23.08
2018-05-15T10:18:14.319Z,23.2
2018-05-15T10:19:23.223Z,23.21
2018-05-15T10:20:31.889Z,23.29
2018-05-15T10:21:40.534Z,23.26
2018-05-15T10:22:49.189Z,23.32
2018-05-15T10:23:57.833Z,23.36
2018-05-15T10:25:06.487Z,23.42
2018-05-15T10:26:15.185Z,23.36
2018-05-15T10:27:23.798Z,23.39
2018-05-15T10:28:32.447Z,23.33
2018-05-15T10:29:41.097Z,23.25
2018-05-15T10:30:49.746Z,23.34
2018-05-15T10:31:58.666Z,23.28
2018-05-15T10:33:07.327Z,23.2
2018-05-15T10:34:15.973Z,23.16
2018-05-15T10:35:24.630Z,23.14
2018-05-15T10:36:33.277Z,23.23
2018-05-15T10:37:41.939Z,23.26
2018-05-15T10:38:50.586Z,23.28
2018-05-15T10:39:59.243Z,23.26
2018-05-15T10:41:08.152Z,23.32
2018-05-15T10:42:16.816Z,23.26
2018-05-15T10:43:25.465Z,23.32
2018-05-15T10:44:34.383Z,23.32
2018-05-15T10:45:43.028Z,23.33
2018-05-15T10:46:51.679Z,23.28
2018-05-15T10:48:00.623Z,23.28
2018-05-15T10:49:09.811Z,23.42
2018-05-15T10:50:18.465Z,23.51
2018-05-15T10:51:27.109Z,23.52
2018-05-15T10:52:35.764Z,23.51
2018-05-15T10:53:44.416Z,23.63
2018-05-15T10:54:53.078Z,23.58
2018-05-15T10:56:01.719Z,23.62
2018-05-15T10:57:10.373Z,23.51
2018-05-15T10:58:19.289Z,23.52
2018-05-15T10:59:28.021Z,23.59
2018-05-15T11:00:36.592Z,23.56
2018-05-15T11:01:45.243Z,23.58
2018-05-15T11:02:53.893Z,23.49
2018-05-15T11:04:02.556Z,23.56
2018-05-15T11:05:11.472Z,23.54
2018-05-15T11:06:20.380Z,23.55
2018-05-15T11:07:29.032Z,23.58
2018-05-15T11:08:37.680Z,23.54
2018-05-15T11:09:46.341Z,23.56
2018-05-15T11:10:55.258Z,23.54
2018-05-15T11:12:03.907Z,23.56
2018-05-15T11:13:12.556Z,23.7
2018-05-15T11:14:21.214Z,23.59
2018-05-15T11:15:29.866Z,23.59
2018-05-15T11:16:38.518Z,23.58
2018-05-15T11:17:47.172Z,23.69
2018-05-15T11:18:55.833Z,23.55
2018-05-15T11:20:04.488Z,23.59
2018-05-15T11:21:13.142Z,23.69
2018-05-15T11:22:21.792Z,23.71
2018-05-15T11:23:30.973Z,23.69
2018-05-15T11:24:40.010Z,23.71
2018-05-15T11:25:48.604Z,23.63
2018-05-15T11:26:57.258Z,23.56
2018-05-15T11:28:05.983Z,23.56
2018-05-15T11:29:14.566Z,23.45
2018-05-15T11:30:23.257Z,23.45
2018-05-15T11:31:32.180Z,23.47
2018-05-15T11:32:40.828Z,23.51
2018-05-15T11:33:49.746Z,23.45
2018-05-15T11:34:58.398Z,23.47
2018-05-15T11:36:07.058Z,23.44
2018-05-15T11:37:15.703Z,23.55
2018-05-15T11:38:24.358Z,23.63
2018-05-15T11:39:33.011Z,23.59
2018-05-15T11:40:41.667Z,23.47
2018-05-15T11:41:50.329Z,23.44
2018-05-15T11:42:59.247Z,23.58
2018-05-15T11:44:08.166Z,23.63
2018-05-15T11:45:16.815Z,23.52
2018-05-15T11:46:25.476Z,23.55
2018-05-15T11:47:35.108Z,23.54
2018-05-15T11:48:44.203Z,23.62
2018-05-15T11:49:53.153Z,23.59
2018-05-15T11:51:03.319Z,23.56
2018-05-15T11:52:12.260Z,23.54
2018-05-15T11:53:22.027Z,23.56
2018-05-15T11:54:30.676Z,23.59
2018-05-15T11:55:42.713Z,23.62
2018-05-15T11:56:47.983Z,23.7
2018-05-15T11:57:56.645Z,23.81
2018-05-15T11:59:05.293Z,23.81
2018-05-15T12:00:13.968Z,23.88
2018-05-15T12:01:22.985Z,23.88
2018-05-15T12:02:31.725Z,23.79
2018-05-15T12:03:40.383Z,23.77
2018-05-15T12:04:48.944Z,23.69
2018-05-15T12:05:57.598Z,23.67
2018-05-15T12:07:06.256Z,23.64
2018-05-15T12:08:15.023Z,23.56
2018-05-15T12:09:23.733Z,23.59
2018-05-15T12:10:32.336Z,23.49
2018-05-15T12:11:40.982Z,23.49
2018-05-15T12:12:49.751Z,23.4
2018-05-15T12:13:58.282Z,23.39
2018-05-15T12:15:07.294Z,23.36
2018-05-15T12:16:16.279Z,23.39
2018-05-15T12:17:25.247Z,23.36
2018-05-15T12:18:34.700Z,23.4
2018-05-15T12:19:43.596Z,23.48
2018-05-15T12:20:52.537Z,23.59
2018-05-15T12:22:01.191Z,23.54
2018-05-15T12:23:09.840Z,23.66
2018-05-15T12:24:18.498Z,23.66
2018-05-15T12:25:27.149Z,23.67
2018-05-15T12:26:35.807Z,23.69
2018-05-15T12:27:44.449Z,23.69
2018-05-15T12:28:53.108Z,23.73
2018-05-15T12:30:01.757Z,23.79
2018-05-15T12:31:10.416Z,23.79
2018-05-15T12:32:19.385Z,23.88
2018-05-15T12:33:28.041Z,23.82
2018-05-15T12:34:36.780Z,23.99
2018-05-15T12:35:45.464Z,23.96
2018-05-15T12:36:54.143Z,24.03
2018-05-15T12:38:02.789Z,24.1
2018-05-15T12:39:11.443Z,24.16
2018-05-15T12:40:20.359Z,24.21
2018-05-15T12:41:29.730Z,24.18
2018-05-15T12:42:38.340Z,24.29
2018-05-15T12:43:47.261Z,24.29
2018-05-15T12:44:55.914Z,24.32
2018-05-15T12:46:04.838Z,24.37
2018-05-15T12:47:13.495Z,24.43
2018-05-15T12:48:22.202Z,24.47
2018-05-15T12:49:30.799Z,24.51
2018-05-15T12:50:39.459Z,24.41
2018-05-15T12:51:48.116Z,24.48
2018-05-15T12:52:56.772Z,24.4
2018-05-15T12:54:05.460Z,24.43
2018-05-15T12:55:14.075Z,24.4
2018-05-15T12:56:22.734Z,24.38
2018-05-15T12:57:31.657Z,24.28
2018-05-15T12:58:40.309Z,24.34
2018-05-15T12:59:48.955Z,24.29
2018-05-15T13:00:57.613Z,24.28
2018-05-15T13:02:06.550Z,24.21
2018-05-15T13:03:15.213Z,24.22
2018-05-15T13:04:23.858Z,24.28
2018-05-15T13:05:32.512Z,24.21
2018-05-15T13:06:41.164Z,24.16
2018-05-15T13:07:49.823Z,24.1
2018-05-15T13:08:58.471Z,24.1
2018-05-15T13:10:07.128Z,24
2018-05-15T13:11:15.779Z,24.03
2018-05-15T13:12:24.436Z,24
2018-05-15T13:13:33.089Z,24.07
2018-05-15T13:14:41.743Z,24.03
2018-05-15T13:15:50.399Z,24.07
2018-05-15T13:16:59.313Z,24.06
2018-05-15T13:18:07.980Z,24.03
2018-05-15T13:19:16.633Z,23.91
2018-05-15T13:20:25.289Z,23.92
2018-05-15T13:21:34.558Z,23.91
2018-05-15T13:22:43.480Z,23.91
2018-05-15T13:23:52.135Z,24.03
2018-05-15T13:25:00.790Z,24.03
2018-05-15T13:26:09.439Z,24.06
2018-05-15T13:27:18.095Z,24.11
2018-05-15T13:28:26.746Z,24.11
2018-05-15T13:29:35.410Z,24.24
2018-05-15T13:30:44.056Z,24.29
2018-05-15T13:31:52.715Z,24.32
2018-05-15T13:33:01.373Z,24.31
2018-05-15T13:34:10.020Z,24.46
2018-05-15T13:35:19.509Z,24.41
2018-05-15T13:36:28.060Z,24.41
2018-05-15T13:37:36.711Z,24.32
2018-05-15T13:38:45.364Z,24.4
2018-05-15T13:39:54.024Z,24.38
2018-05-15T13:41:03.031Z,24.5
2018-05-15T13:42:11.972Z,24.48
2018-05-15T13:43:20.620Z,24.44
2018-05-15T13:44:29.279Z,24.5
2018-05-15T13:45:37.928Z,24.58
2018-05-15T13:46:47.118Z,24.53
2018-05-15T13:47:56.040Z,24.61
2018-05-15T13:49:04.697Z,24.62
2018-05-15T13:50:13.349Z,24.68
2018-05-15T13:51:22.002Z,24.68
2018-05-15T13:52:30.656Z,24.59
2018-05-15T13:53:39.306Z,24.56
2018-05-15T13:54:47.964Z,24.59
2018-05-15T13:55:56.617Z,24.62
2018-05-15T13:57:05.276Z,24.66
2018-05-15T13:58:13.929Z,24.66
2018-05-15T13:59:22.680Z,24.66
2018-05-15T14:00:31.256Z,24.63
2018-05-15T14:01:39.909Z,24.58
2018-05-15T14:02:48.565Z,24.62
2018-05-15T14:03:57.474Z,24.63
2018-05-15T14:05:06.399Z,24.61
2018-05-15T14:06:15.049Z,24.63
2018-05-15T14:07:23.713Z,24.58
2018-05-15T14:08:32.364Z,24.53
2018-05-15T14:09:41.016Z,24.51
2018-05-15T14:10:49.665Z,24.48
2018-05-15T14:11:58.315Z,24.36
2018-05-15T14:13:06.974Z,24.36
2018-05-15T14:14:15.886Z,24.31
2018-05-15T14:15:24.539Z,24.31
2018-05-15T14:16:33.190Z,24.36
2018-05-15T14:17:41.849Z,24.32
2018-05-15T14:18:50.504Z,24.31
2018-05-15T14:19:59.160Z,24.28
2018-05-15T14:21:07.801Z,24.43
2018-05-15T14:22:16.459Z,24.46
2018-05-15T14:23:25.108Z,24.43
2018-05-15T14:24:33.797Z,24.37
2018-05-15T14:25:42.729Z,24.44
2018-05-15T14:26:51.384Z,24.36
2018-05-15T14:28:00.036Z,24.44
2018-05-15T14:29:08.691Z,24.28
2018-05-15T14:30:17.345Z,24.28
2018-05-15T14:31:26.364Z,24.34
2018-05-15T14:32:35.222Z,24.28
2018-05-15T14:33:43.875Z,24.31
2018-05-15T14:34:52.532Z,24.4
2018-05-15T14:36:01.181Z,24.29
2018-05-15T14:37:09.834Z,24.28
2018-05-15T14:38:18.487Z,24.24
2018-05-15T14:39:27.144Z,24.28
2018-05-15T14:40:35.793Z,24.24
2018-05-15T14:41:44.450Z,24.34
2018-05-15T14:42:53.101Z,24.36
2018-05-15T14:44:01.761Z,24.4
2018-05-15T14:45:10.413Z,24.29
2018-05-15T14:46:19.068Z,24.29
2018-05-15T14:47:27.721Z,24.19
2018-05-15T14:48:36.368Z,24.25